Time;durP1;ratioP1;P1;durP2;ratioP2;P2;SDS_P1;SDS_P2;PMS_P1;PMS_P2;Temp;Humidity;BMP_temperature;BMP_pressure;BME280_temperature;BME280_humidity;BME280_pressure;Samples;Min_cycle;Max_cycle;Signal;HPM_P1;HPM_P2
2022/09/21 00:01:24;;;;;;;3.25;1.10;;;12.10;99.90;;;;;;5006495;28;20054;-78
2022/09/21 00:03:59;;;;;;;3.05;1.10;;;12.10;99.90;;;;;;5002229;28;20046;-77
2022/09/21 00:06:28;;;;;;;2.08;0.98;;;12.00;99.90;;;;;;5009399;28;20520;-79
2022/09/21 00:08:55;;;;;;;1.90;0.85;;;12.00;99.90;;;;;;5001714;28;20054;-77
2022/09/21 00:11:25;;;;;;;3.58;1.30;;;12.00;99.90;;;;;;5009706;28;20056;-78
2022/09/21 00:13:59;;;;;;;5.82;1.20;;;11.90;99.90;;;;;;5000728;28;20046;-78
2022/09/21 00:16:27;;;;;;;2.33;1.08;;;11.90;99.90;;;;;;5007576;28;20049;-77
2022/09/21 00:18:54;;;;;;;2.15;1.08;;;11.80;99.90;;;;;;5008745;28;20490;-78
2022/09/21 00:21:21;;;;;;;5.00;1.13;;;11.70;99.90;;;;;;5009424;28;20136;-80
2022/09/21 00:23:48;;;;;;;3.38;1.00;;;11.70;99.90;;;;;;5003741;28;20086;-79
2022/09/21 00:26:20;;;;;;;2.33;1.00;;;11.60;99.90;;;;;;4999095;28;20063;-78
2022/09/21 00:28:53;;;;;;;3.72;1.30;;;11.60;99.90;;;;;;4994446;28;20050;-79
2022/09/21 00:31:20;;;;;;;4.32;1.10;;;11.50;99.90;;;;;;5011170;28;20080;-79
2022/09/21 00:33:47;;;;;;;1.92;1.20;;;11.50;99.90;;;;;;4995690;28;20053;-79
2022/09/21 00:36:16;;;;;;;1.77;0.80;;;11.40;99.90;;;;;;5004037;28;20150;-80
2022/09/21 00:38:47;;;;;;;4.53;1.35;;;11.40;99.90;;;;;;5009455;28;20041;-79
2022/09/21 00:41:14;;;;;;;3.10;1.10;;;11.30;99.90;;;;;;5015496;28;20050;-79
2022/09/21 00:43:46;;;;;;;4.00;1.15;;;11.30;99.90;;;;;;5015734;28;20054;-78
2022/09/21 00:46:28;;;;;;;1.38;0.90;;;11.20;99.90;;;;;;5012045;28;20061;-80
2022/09/21 00:48:56;;;;;;;3.05;1.10;;;11.20;99.90;;;;;;5000905;28;20118;-79
2022/09/21 00:51:24;;;;;;;2.28;1.15;;;11.10;99.90;;;;;;5013150;28;20588;-80
2022/09/21 00:53:55;;;;;;;1.85;1.00;;;11.10;99.90;;;;;;5009468;28;20049;-79
2022/09/21 00:56:22;;;;;;;2.60;1.25;;;11.10;99.90;;;;;;5011331;28;20046;-80
2022/09/21 00:58:51;;;;;;;3.45;1.13;;;11.10;99.90;;;;;;5010431;28;20052;-80
2022/09/21 01:01:18;;;;;;;2.78;1.10;;;11.00;99.90;;;;;;5010826;28;20442;-78
2022/09/21 01:03:47;;;;;;;2.63;1.05;;;11.00;99.90;;;;;;5007055;28;20058;-81
2022/09/21 01:06:16;;;;;;;1.35;1.23;;;10.90;99.90;;;;;;5015398;28;20058;-80
2022/09/21 01:08:46;;;;;;;2.22;0.85;;;10.90;99.90;;;;;;5007062;28;20114;-81
2022/09/21 01:11:25;;;;;;;5.07;1.58;;;10.90;99.90;;;;;;5007300;28;20054;-79
2022/09/21 01:14:22;;;;;;;4.47;1.00;;;10.80;99.90;;;;;;5020226;28;20078;-77
2022/09/21 01:17:01;;;;;;;1.30;1.20;;;10.80;99.90;;;;;;5031279;28;20118;-81
2022/09/21 01:20:06;;;;;;;1.67;0.90;;;10.70;99.90;;;;;;5029521;28;20044;-82
2022/09/21 01:23:01;;;;;;;3.70;1.10;;;10.70;99.90;;;;;;5027080;28;20038;-81
2022/09/21 01:25:51;;;;;;;2.08;1.05;;;10.70;99.90;;;;;;5023189;28;20054;-82
2022/09/21 01:28:56;;;;;;;2.90;1.00;;;10.60;99.90;;;;;;5040940;28;20054;-81
2022/09/21 01:31:30;;;;;;;3.85;1.25;;;10.60;99.90;;;;;;5011800;28;20555;-80
2022/09/21 01:34:04;;;;;;;1.45;1.00;;;10.60;99.90;;;;;;5011777;28;20045;-80
2022/09/21 01:36:32;;;;;;;2.25;1.00;;;10.50;99.90;;;;;;5009338;28;20058;-78
2022/09/21 01:39:08;;;;;;;2.28;1.10;;;10.50;99.90;;;;;;5010585;28;20046;-80
2022/09/21 01:41:37;;;;;;;4.05;1.17;;;10.50;99.90;;;;;;5008057;28;20058;-79
2022/09/21 01:44:12;;;;;;;1.45;1.20;;;10.40;99.90;;;;;;5003397;28;20050;-80
2022/09/21 01:46:39;;;;;;;4.05;1.13;;;10.40;99.90;;;;;;5015381;28;20058;-78
2022/09/21 01:49:12;;;;;;;3.45;1.10;;;10.40;99.90;;;;;;5014140;28;20057;-79
2022/09/21 01:51:45;;;;;;;2.38;1.40;;;10.40;99.90;;;;;;5010234;28;20146;-80
2022/09/21 01:54:20;;;;;;;3.25;1.20;;;10.30;99.90;;;;;;5010666;28;20074;-80
2022/09/21 01:57:01;;;;;;;1.80;1.10;;;10.30;99.90;;;;;;5013725;28;20081;-80
2022/09/21 01:59:51;;;;;;;3.70;1.25;;;10.30;99.90;;;;;;5008446;28;20049;-79
2022/09/21 02:02:39;;;;;;;1.50;1.10;;;10.20;99.90;;;;;;5012933;28;20073;-79
2022/09/21 02:05:06;;;;;;;7.65;1.13;;;10.20;99.90;;;;;;5013551;28;20127;-78
2022/09/21 02:07:34;;;;;;;3.85;1.30;;;10.10;99.90;;;;;;5013109;28;20101;-78
2022/09/21 02:10:02;;;;;;;1.77;1.00;;;10.10;99.90;;;;;;5007746;28;20053;-80
2022/09/21 02:12:32;;;;;;;3.67;1.25;;;10.20;99.90;;;;;;5002343;28;20053;-80
2022/09/21 02:15:00;;;;;;;1.90;1.00;;;10.20;99.90;;;;;;5012452;28;20061;-80
2022/09/21 02:17:40;;;;;;;2.83;0.98;;;10.20;99.90;;;;;;5003576;28;20053;-79
2022/09/21 02:20:14;;;;;;;2.25;1.13;;;10.30;99.90;;;;;;5002829;28;20057;-80
2022/09/21 02:22:59;;;;;;;3.45;1.10;;;10.30;99.90;;;;;;5005207;28;20050;-80
2022/09/21 02:25:44;;;;;;;1.73;0.95;;;10.30;99.90;;;;;;5005353;28;20168;-80
2022/09/21 02:28:34;;;;;;;0.85;0.82;;;10.30;99.90;;;;;;5001829;28;20082;-79
2022/09/21 02:31:20;;;;;;;4.72;1.13;;;10.30;99.90;;;;;;5005201;28;20491;-79
2022/09/21 02:34:09;;;;;;;2.58;1.10;;;10.30;99.90;;;;;;5004173;28;20058;-80
2022/09/21 02:36:47;;;;;;;1.30;1.20;;;10.30;99.90;;;;;;5022425;28;20246;-80
2022/09/21 02:39:25;;;;;;;3.28;0.90;;;10.30;99.90;;;;;;5001865;28;20112;-80
2022/09/21 02:42:15;;;;;;;2.35;0.98;;;10.30;99.90;;;;;;4997372;28;20133;-78
2022/09/21 02:44:51;;;;;;;3.23;1.10;;;10.30;99.90;;;;;;4995422;28;20145;-79
2022/09/21 02:47:23;;;;;;;2.45;1.08;;;10.30;99.90;;;;;;4998672;28;20280;-80
2022/09/21 02:49:57;;;;;;;1.67;0.93;;;10.20;99.90;;;;;;5002332;28;20121;-77
2022/09/21 02:52:26;;;;;;;3.00;1.08;;;10.20;99.90;;;;;;4999049;28;20055;-79
2022/09/21 02:54:55;;;;;;;5.38;1.23;;;10.10;99.90;;;;;;5001911;28;20072;-80
2022/09/21 02:57:23;;;;;;;3.13;1.35;;;10.10;99.90;;;;;;5014529;28;20531;-80
2022/09/21 02:59:51;;;;;;;2.13;1.10;;;10.00;99.90;;;;;;5000520;28;20054;-81
2022/09/21 03:02:17;;;;;;;2.75;1.40;;;10.00;99.90;;;;;;5015737;28;20050;-80
2022/09/21 03:04:46;;;;;;;3.47;1.08;;;10.00;99.90;;;;;;5013662;28;20052;-80
2022/09/21 03:07:15;;;;;;;1.73;0.77;;;9.90;99.90;;;;;;5010367;28;20058;-79
2022/09/21 03:09:42;;;;;;;1.98;1.10;;;9.90;99.90;;;;;;5015293;28;20046;-80
2022/09/21 03:12:09;;;;;;;2.00;1.00;;;9.90;99.90;;;;;;5015559;28;20387;-79
2022/09/21 03:14:35;;;;;;;5.47;2.10;;;9.90;99.90;;;;;;5009865;28;20084;-77
2022/09/21 03:17:02;;;;;;;2.85;1.23;;;9.80;99.90;;;;;;5000858;28;20065;-79
2022/09/21 03:19:29;;;;;;;2.28;1.60;;;9.80;99.90;;;;;;5016858;28;20141;-78
2022/09/21 03:21:56;;;;;;;3.15;1.00;;;9.80;99.90;;;;;;5012260;28;20110;-77
2022/09/21 03:27:08;;;;;;;4.13;1.20;;;9.60;99.90;;;;;;5010288;28;20583;-77
2022/09/21 03:29:34;;;;;;;4.60;1.20;;;9.60;99.90;;;;;;5018214;28;20133;-77
2022/09/21 03:32:02;;;;;;;1.67;1.23;;;9.60;99.90;;;;;;5003086;28;20054;-77
2022/09/21 03:34:30;;;;;;;4.35;1.00;;;9.60;99.90;;;;;;5012049;28;20400;-77
2022/09/21 03:36:57;;;;;;;2.05;1.13;;;9.50;99.90;;;;;;5011558;28;20046;-77
2022/09/21 03:39:23;;;;;;;4.60;1.00;;;9.50;99.90;;;;;;5013673;28;20054;-79
2022/09/21 03:41:51;;;;;;;2.85;1.20;;;9.50;99.90;;;;;;5025443;28;20078;-78
2022/09/21 03:44:18;;;;;;;2.47;1.15;;;9.50;99.90;;;;;;5000619;28;20065;-79
2022/09/21 03:46:45;;;;;;;1.75;1.20;;;9.40;99.90;;;;;;5013597;28;20057;-80
2022/09/21 03:49:12;;;;;;;3.75;1.63;;;9.40;99.90;;;;;;4999256;28;20050;-79
2022/09/21 03:51:39;;;;;;;1.67;1.20;;;9.40;99.90;;;;;;4997524;28;20066;-79
2022/09/21 03:54:06;;;;;;;1.42;0.93;;;9.40;99.90;;;;;;4996694;28;20758;-79
2022/09/21 03:56:33;;;;;;;4.85;1.45;;;9.30;99.90;;;;;;5001565;28;20050;-80
2022/09/21 03:59:00;;;;;;;5.38;1.35;;;9.30;99.90;;;;;;5012032;28;20054;-78
2022/09/21 04:01:26;;;;;;;4.97;1.30;;;9.20;99.90;;;;;;5011435;28;20753;-80
2022/09/21 04:03:53;;;;;;;2.53;1.20;;;9.20;99.90;;;;;;5001123;28;20061;-79
2022/09/21 04:06:20;;;;;;;2.70;1.42;;;9.20;99.90;;;;;;5014268;28;20053;-79
2022/09/21 04:08:47;;;;;;;1.88;1.08;;;9.10;99.90;;;;;;5015106;28;20057;-80
2022/09/21 04:11:16;;;;;;;3.28;1.40;;;9.10;99.90;;;;;;5004733;28;20046;-80
2022/09/21 04:13:44;;;;;;;2.05;1.30;;;9.10;99.90;;;;;;5014188;28;20520;-79
2022/09/21 04:16:10;;;;;;;2.92;1.33;;;9.10;99.90;;;;;;5014716;28;20047;-80
2022/09/21 04:18:37;;;;;;;2.40;1.10;;;9.00;99.90;;;;;;5007581;28;20128;-79
2022/09/21 04:21:05;;;;;;;3.33;1.70;;;9.00;99.90;;;;;;5007983;28;20056;-79
2022/09/21 04:23:31;;;;;;;4.68;1.48;;;9.00;99.90;;;;;;5012609;28;20060;-79
2022/09/21 04:25:58;;;;;;;5.95;1.63;;;9.00;99.90;;;;;;5005864;28;20471;-80
2022/09/21 04:28:25;;;;;;;2.40;1.42;;;8.90;99.90;;;;;;5003676;28;20151;-80
2022/09/21 04:30:54;;;;;;;6.30;2.50;;;8.90;99.90;;;;;;5012855;28;20675;-80
2022/09/21 04:33:22;;;;;;;5.78;2.60;;;8.90;99.90;;;;;;4996782;28;20550;-80
2022/09/21 04:35:55;;;;;;;6.18;3.17;;;8.90;99.90;;;;;;4996316;28;20046;-79
2022/09/21 04:38:22;;;;;;;9.18;2.85;;;8.90;99.90;;;;;;4999963;28;20042;-79
2022/09/21 04:40:58;;;;;;;3.45;1.80;;;8.90;99.90;;;;;;5005154;28;20397;-80
2022/09/21 04:43:25;;;;;;;3.88;1.92;;;8.80;99.90;;;;;;5009973;28;20054;-79
2022/09/21 04:45:52;;;;;;;4.65;2.65;;;8.80;99.90;;;;;;5009906;28;20058;-79
2022/09/21 04:48:19;;;;;;;3.65;1.58;;;8.80;99.90;;;;;;5010570;28;20050;-81
2022/09/21 04:50:49;;;;;;;1.95;1.52;;;8.70;99.90;;;;;;5008209;28;20166;-80
2022/09/21 04:53:16;;;;;;;5.28;1.70;;;8.70;99.90;;;;;;4997674;28;20061;-79
2022/09/21 04:55:45;;;;;;;3.80;1.73;;;8.70;99.90;;;;;;4997385;28;20058;-80
2022/09/21 04:58:12;;;;;;;5.28;1.75;;;8.70;99.90;;;;;;4997232;28;20081;-81
2022/09/21 05:00:38;;;;;;;4.00;1.70;;;8.70;99.90;;;;;;4995268;28;20524;-80
2022/09/21 05:03:05;;;;;;;7.53;2.63;;;8.70;99.90;;;;;;5000712;28;20053;-79
2022/09/21 05:05:32;;;;;;;5.53;1.85;;;8.70;99.90;;;;;;5009117;28;20061;-79
2022/09/21 05:07:58;;;;;;;4.00;1.80;;;8.60;99.90;;;;;;4998108;28;20495;-79
2022/09/21 05:10:25;;;;;;;3.22;1.83;;;8.70;99.90;;;;;;5010083;28;20061;-78
2022/09/21 05:12:52;;;;;;;5.13;2.10;;;8.70;99.90;;;;;;4997513;28;20061;-78
2022/09/21 05:15:20;;;;;;;4.00;1.77;;;8.70;99.90;;;;;;5009158;28;20058;-80
2022/09/21 05:17:47;;;;;;;4.57;2.13;;;8.70;99.90;;;;;;5012848;28;20046;-80
2022/09/21 05:20:14;;;;;;;6.00;2.08;;;8.80;99.90;;;;;;5012507;28;20050;-78
2022/09/21 05:22:41;;;;;;;5.57;2.50;;;8.80;99.90;;;;;;4994593;28;20046;-79
2022/09/21 05:25:08;;;;;;;6.30;2.40;;;8.90;99.90;;;;;;5000070;28;20530;-80
2022/09/21 05:27:35;;;;;;;4.32;2.30;;;8.90;99.90;;;;;;5007523;28;20056;-80
2022/09/21 05:30:02;;;;;;;11.07;2.70;;;8.90;99.90;;;;;;5009324;28;20104;-80
2022/09/21 05:32:47;;;;;;;11.30;3.58;;;9.00;99.90;;;;;;5008020;28;20058;-78
2022/09/21 05:35:14;;;;;;;7.95;3.38;;;9.10;99.90;;;;;;5024100;28;20125;-79
2022/09/21 05:37:58;;;;;;;9.10;3.17;;;9.10;99.90;;;;;;4996252;28;20054;-80
2022/09/21 05:40:25;;;;;;;13.70;4.90;;;9.20;99.90;;;;;;4998460;28;20137;-78
2022/09/21 05:42:52;;;;;;;12.27;5.95;;;9.30;99.90;;;;;;5008168;28;20133;-81
2022/09/21 05:45:20;;;;;;;12.90;7.50;;;9.30;99.90;;;;;;5007573;28;20073;-79
2022/09/21 05:47:56;;;;;;;20.55;8.15;;;9.40;99.90;;;;;;5002985;28;20042;-80
2022/09/21 05:51:00;;;;;;;30.50;8.98;;;9.40;99.90;;;;;;5001614;28;20054;-80
2022/09/21 05:53:44;;;;;;;22.50;8.95;;;9.50;99.90;;;;;;5001337;28;20531;-78
2022/09/21 05:56:27;;;;;;;32.13;9.63;;;9.50;99.90;;;;;;5000848;28;20125;-80
2022/09/21 05:59:05;;;;;;;29.02;8.82;;;9.60;99.90;;;;;;5000145;28;20444;-80
2022/09/21 06:01:57;;;;;;;23.15;8.90;;;9.60;99.90;;;;;;5001117;28;20050;-80
2022/09/21 06:04:24;;;;;;;14.40;8.52;;;9.70;99.90;;;;;;5010472;28;20080;-78
2022/09/21 06:06:51;;;;;;;14.88;7.70;;;9.70;99.90;;;;;;5010789;28;20172;-80
2022/09/21 06:09:19;;;;;;;13.52;6.93;;;9.70;99.90;;;;;;5002050;28;20140;-80
2022/09/21 06:11:46;;;;;;;9.70;6.63;;;9.70;99.90;;;;;;5013782;28;20050;-81
2022/09/21 06:14:13;;;;;;;15.77;8.57;;;9.70;99.90;;;;;;5013329;28;20045;-78
2022/09/21 06:16:41;;;;;;;12.80;7.72;;;9.70;99.90;;;;;;5006064;28;20153;-81
2022/09/21 06:19:12;;;;;;;12.90;7.53;;;9.70;99.90;;;;;;4995582;28;20057;-80
2022/09/21 06:21:39;;;;;;;12.13;7.18;;;9.70;99.90;;;;;;5005284;28;20492;-79
2022/09/21 06:24:06;;;;;;;12.82;7.05;;;9.70;99.90;;;;;;5005913;28;20053;-79
2022/09/21 06:26:33;;;;;;;11.80;7.22;;;9.60;99.90;;;;;;5011215;28;20054;-80
2022/09/21 06:29:00;;;;;;;11.43;7.05;;;9.60;99.90;;;;;;5015702;28;20403;-77
2022/09/21 06:31:27;;;;;;;9.70;6.43;;;9.60;99.90;;;;;;5008645;28;20085;-79
2022/09/21 06:33:54;;;;;;;12.88;6.90;;;9.60;99.90;;;;;;5014307;28;20625;-77
2022/09/21 06:36:21;;;;;;;13.02;7.05;;;9.60;99.90;;;;;;5012485;28;20688;-79
2022/09/21 06:38:47;;;;;;;14.65;8.77;;;9.60;99.90;;;;;;5006578;28;20077;-79
2022/09/21 06:41:15;;;;;;;14.88;7.40;;;9.60;99.90;;;;;;5002947;28;20064;-77
2022/09/21 06:43:47;;;;;;;17.58;7.88;;;9.60;99.90;;;;;;5008970;28;20080;-80
2022/09/21 06:46:13;;;;;;;14.00;8.10;;;9.70;99.90;;;;;;5005104;28;20145;-79
2022/09/21 06:48:40;;;;;;;11.18;7.88;;;9.60;99.90;;;;;;5005060;28;20050;-78
2022/09/21 06:51:08;;;;;;;11.50;7.47;;;9.60;99.90;;;;;;5013211;28;20050;-78
2022/09/21 06:53:35;;;;;;;12.02;8.10;;;9.60;99.90;;;;;;5004808;28;20443;-79
2022/09/21 06:56:04;;;;;;;14.18;9.10;;;9.60;99.90;;;;;;5007230;28;20050;-80
2022/09/21 06:58:33;;;;;;;12.07;7.80;;;9.60;99.90;;;;;;5006648;28;20046;-80
2022/09/21 07:01:07;;;;;;;11.23;7.65;;;9.60;99.90;;;;;;5002591;28;20069;-79
2022/09/21 07:03:34;;;;;;;11.10;6.88;;;9.70;99.90;;;;;;5004646;28;20508;-79
2022/09/21 07:06:01;;;;;;;12.30;7.03;;;9.70;99.90;;;;;;5006388;28;20054;-80
2022/09/21 07:08:28;;;;;;;8.20;5.57;;;9.70;99.90;;;;;;5012141;28;20125;-78
2022/09/21 07:11:15;;;;;;;9.38;6.00;;;9.70;99.90;;;;;;5016568;28;20609;-79
2022/09/21 07:13:41;;;;;;;10.50;7.35;;;9.70;99.90;;;;;;5015884;28;20099;-80
2022/09/21 07:16:08;;;;;;;13.90;8.80;;;9.70;99.90;;;;;;5006032;28;20137;-79
2022/09/21 07:18:37;;;;;;;10.77;8.50;;;9.70;99.90;;;;;;5016202;28;20444;-78
2022/09/21 07:21:10;;;;;;;12.50;8.00;;;9.70;99.90;;;;;;5018115;28;20463;-79
2022/09/21 07:23:37;;;;;;;13.30;8.38;;;9.60;99.90;;;;;;5010411;28;20071;-78
2022/09/21 07:26:07;;;;;;;13.23;9.00;;;9.70;99.90;;;;;;5012381;28;20086;-79
2022/09/21 07:28:34;;;;;;;13.27;8.88;;;9.70;99.90;;;;;;5010202;28;20495;-79
2022/09/21 07:31:09;;;;;;;14.73;9.00;;;9.70;99.90;;;;;;5013291;28;20045;-79
2022/09/21 07:33:36;;;;;;;18.52;9.82;;;9.80;99.90;;;;;;5011785;28;20046;-80
2022/09/21 07:36:09;;;;;;;15.23;9.18;;;9.90;99.90;;;;;;5010715;28;20156;-78
2022/09/21 07:38:38;;;;;;;16.30;9.50;;;10.00;99.90;;;;;;5014590;28;20050;-79
2022/09/21 07:41:14;;;;;;;16.50;10.07;;;10.10;99.90;;;;;;5016351;28;20162;-79
2022/09/21 07:43:41;;;;;;;15.32;9.25;;;10.20;99.90;;;;;;5010319;28;20046;-80
2022/09/21 07:46:10;;;;;;;17.70;9.10;;;10.30;99.90;;;;;;5008470;28;20046;-78
2022/09/21 07:48:37;;;;;;;12.75;7.85;;;10.40;99.90;;;;;;5014618;28;20106;-80
2022/09/21 07:51:06;;;;;;;16.33;8.63;;;10.40;99.90;;;;;;5015793;28;20400;-80
2022/09/21 07:53:34;;;;;;;16.30;8.23;;;10.50;99.90;;;;;;5006163;28;20447;-81
2022/09/21 07:56:03;;;;;;;12.40;8.35;;;10.50;99.90;;;;;;5006687;28;20053;-81
2022/09/21 08:01:16;;;;;;;14.30;9.05;;;10.30;99.90;;;;;;5012031;28;20050;-80
2022/09/21 08:03:48;;;;;;;17.60;8.23;;;10.30;99.90;;;;;;5015203;28;20073;-82
2022/09/21 08:06:14;;;;;;;12.05;8.07;;;10.20;99.90;;;;;;5026801;28;20113;-83
2022/09/21 08:08:41;;;;;;;11.88;7.47;;;10.20;99.90;;;;;;5025870;28;20054;-81
2022/09/21 08:11:10;;;;;;;13.15;6.97;;;10.20;99.90;;;;;;5028315;28;20046;-81
2022/09/21 08:13:37;;;;;;;13.65;7.35;;;10.30;99.90;;;;;;5035172;28;20037;-82
2022/09/21 08:16:04;;;;;;;11.27;7.20;;;10.30;99.90;;;;;;5037519;28;20052;-80
2022/09/21 08:18:30;;;;;;;10.15;6.18;;;10.30;99.90;;;;;;5020037;28;20042;-80
2022/09/21 08:20:59;;;;;;;9.88;6.45;;;10.30;99.90;;;;;;4997094;28;20046;-79
2022/09/21 08:23:27;;;;;;;8.27;6.07;;;10.30;99.90;;;;;;5004260;28;20049;-81
2022/09/21 08:26:02;;;;;;;13.10;5.85;;;10.30;99.90;;;;;;4997007;28;20054;-81
2022/09/21 08:28:30;;;;;;;12.05;6.30;;;10.40;99.90;;;;;;5000698;28;20046;-80
2022/09/21 08:31:01;;;;;;;9.32;6.10;;;10.40;99.90;;;;;;4999198;28;20046;-81
2022/09/21 08:33:28;;;;;;;9.68;6.25;;;10.30;99.90;;;;;;5014680;28;20077;-80
2022/09/21 08:35:58;;;;;;;8.13;5.78;;;10.40;99.90;;;;;;5011839;28;20068;-79
2022/09/21 08:38:26;;;;;;;7.65;5.63;;;10.40;99.90;;;;;;5014498;28;20046;-78
2022/09/21 08:40:54;;;;;;;10.73;5.95;;;10.40;99.90;;;;;;5007656;28;20074;-81
2022/09/21 08:43:31;;;;;;;14.52;5.88;;;10.50;99.90;;;;;;5012868;28;20050;-80
2022/09/21 08:45:59;;;;;;;8.20;5.28;;;10.50;99.90;;;;;;5013978;28;20053;-80
2022/09/21 08:48:30;;;;;;;8.43;4.63;;;10.50;99.90;;;;;;5005983;28;20136;-80
2022/09/21 08:51:07;;;;;;;7.45;5.40;;;10.50;99.90;;;;;;5007829;28;20582;-80
2022/09/21 08:53:45;;;;;;;7.13;4.57;;;10.60;99.90;;;;;;5004019;28;20104;-80
2022/09/21 08:56:14;;;;;;;10.20;5.25;;;10.60;99.90;;;;;;5005418;28;20045;-80
2022/09/21 08:58:41;;;;;;;10.00;5.30;;;10.70;99.90;;;;;;5005350;28;20065;-78
2022/09/21 09:01:43;;;;;;;6.55;4.65;;;10.70;99.90;;;;;;5008321;28;20046;-80
2022/09/21 09:04:16;;;;;;;6.38;4.40;;;10.80;99.90;;;;;;5002826;28;20065;-79
2022/09/21 09:07:09;;;;;;;6.50;4.00;;;10.80;99.90;;;;;;5006215;28;20488;-78
2022/09/21 09:10:32;;;;;;;5.30;3.85;;;10.80;99.90;;;;;;5000072;28;20140;-78
2022/09/21 09:13:02;;;;;;;8.05;3.50;;;10.90;99.90;;;;;;4957103;28;20144;-79
2022/09/21 09:15:29;;;;;;;7.63;3.90;;;11.00;99.90;;;;;;4956206;28;20432;-79
2022/09/21 09:18:30;;;;;;;4.65;3.15;;;11.00;99.90;;;;;;4982702;28;20050;-78
2022/09/21 09:21:04;;;;;;;7.75;3.53;;;11.10;99.90;;;;;;4996048;28;20043;-79
2022/09/21 09:23:38;;;;;;;7.18;4.00;;;11.20;99.90;;;;;;4996712;28;20050;-80
2022/09/21 09:26:19;;;;;;;7.85;4.22;;;11.20;99.90;;;;;;4995985;28;20057;-78
2022/09/21 09:28:57;;;;;;;8.85;3.88;;;11.30;99.90;;;;;;5011702;28;20120;-80
2022/09/21 09:31:28;;;;;;;7.95;3.33;;;11.30;99.90;;;;;;5009935;28;20125;-79
2022/09/21 09:33:58;;;;;;;7.90;3.80;;;11.40;99.90;;;;;;4999197;28;20046;-80
2022/09/21 09:36:29;;;;;;;7.63;3.90;;;11.40;99.90;;;;;;5022312;23;20085;-81
2022/09/21 09:39:16;;;;;;;9.82;3.42;;;11.50;99.90;;;;;;5011611;28;20057;-81
2022/09/21 09:42:08;;;;;;;6.00;3.60;;;11.50;99.90;;;;;;5013644;28;20049;-83
2022/09/21 09:44:54;;;;;;;8.40;3.90;;;11.60;99.90;;;;;;5011640;28;20041;-81
2022/09/21 09:47:40;;;;;;;8.52;4.30;;;11.60;99.90;;;;;;5009037;28;20041;-81
2022/09/21 09:50:19;;;;;;;5.53;4.10;;;11.70;99.90;;;;;;5016206;28;20506;-81
2022/09/21 09:55:56;;;;;;;9.75;3.33;;;11.90;99.90;;;;;;5844141;23;20051;-78
2022/09/21 09:58:41;;;;;;;5.50;2.95;;;11.90;99.90;;;;;;4982806;28;20066;-79
2022/09/21 10:01:07;;;;;;;6.35;3.67;;;12.00;99.90;;;;;;4980019;28;20054;-78
2022/09/21 10:03:35;;;;;;;13.35;4.88;;;12.10;99.90;;;;;;4979754;28;20055;-79
2022/09/21 10:06:01;;;;;;;6.97;4.30;;;12.10;99.90;;;;;;4990809;28;20047;-79
2022/09/21 10:08:43;;;;;;;5.90;3.83;;;12.20;99.90;;;;;;4958308;29;20102;-79
2022/09/21 10:11:15;;;;;;;7.57;3.90;;;12.20;99.90;;;;;;4956274;29;20069;-78
2022/09/21 10:13:44;;;;;;;8.23;3.50;;;12.30;99.90;;;;;;4969955;28;20050;-78
2022/09/21 10:16:19;;;;;;;8.90;3.73;;;12.30;99.90;;;;;;4969673;28;20043;-80
2022/09/21 10:18:55;;;;;;;5.25;3.08;;;12.40;99.90;;;;;;4982172;28;20051;-78
2022/09/21 10:21:32;;;;;;;9.13;3.95;;;12.40;99.90;;;;;;4960134;28;20048;-78
2022/09/21 10:24:01;;;;;;;8.55;3.97;;;12.40;99.90;;;;;;4961155;28;20059;-78
2022/09/21 10:26:35;;;;;;;6.22;3.90;;;12.50;99.90;;;;;;4958376;28;20471;-78
2022/09/21 10:29:22;;;;;;;9.50;4.18;;;12.50;99.90;;;;;;4958981;28;20424;-78
2022/09/21 10:32:05;;;;;;;9.10;4.20;;;12.60;99.90;;;;;;4960931;28;20070;-79
2022/09/21 10:34:34;;;;;;;5.88;3.80;;;12.70;99.90;;;;;;4977461;28;20447;-79
2022/09/21 10:37:21;;;;;;;7.45;4.07;;;12.80;99.90;;;;;;4959736;28;20043;-79
2022/09/21 10:39:48;;;;;;;5.68;3.53;;;12.90;99.90;;;;;;4974400;28;20055;-79
2022/09/21 10:42:17;;;;;;;7.97;4.50;;;12.90;99.90;;;;;;4969132;28;20476;-79
2022/09/21 10:44:47;;;;;;;12.05;4.38;;;13.00;99.90;;;;;;4965260;28;20054;-82
2022/09/21 10:47:34;;;;;;;6.32;4.00;;;13.10;99.90;;;;;;4966131;28;20051;-79
2022/09/21 10:50:04;;;;;;;9.95;4.05;;;13.10;99.90;;;;;;4962746;28;20067;-79
2022/09/21 10:52:42;;;;;;;14.23;4.13;;;13.10;99.90;;;;;;4959735;28;20083;-79
2022/09/21 10:55:18;;;;;;;8.55;4.85;;;13.20;99.90;;;;;;4960647;28;20109;-79
2022/09/21 10:57:46;;;;;;;6.00;3.92;;;13.20;99.90;;;;;;4963295;28;20048;-79
2022/09/21 11:00:25;;;;;;;8.30;4.03;;;13.30;99.90;;;;;;4964308;28;20097;-78
2022/09/21 11:02:54;;;;;;;9.63;3.83;;;13.40;99.90;;;;;;4971545;28;20043;-79
2022/09/21 11:05:27;;;;;;;8.43;3.88;;;13.40;99.90;;;;;;4971946;28;20078;-79
2022/09/21 11:08:15;;;;;;;4.85;3.50;;;13.50;99.90;;;;;;4969863;28;20500;-79
2022/09/21 11:11:09;;;;;;;7.28;4.18;;;13.60;99.90;;;;;;4969898;28;20360;-78
2022/09/21 11:13:45;;;;;;;6.50;3.25;;;13.70;99.90;;;;;;4962416;28;20051;-78
2022/09/21 11:22:17;;;;;;;4.40;2.28;;;13.90;99.90;;;;;;5844002;23;20045;-81
2022/09/21 11:25:01;;;;;;;7.10;2.90;;;13.90;99.90;;;;;;4990881;28;20050;-82
2022/09/21 11:27:34;;;;;;;4.45;2.30;;;14.00;99.90;;;;;;5002639;28;20499;-84
2022/09/21 11:30:13;;;;;;;5.43;2.10;;;14.10;99.90;;;;;;4991909;28;20046;-87
2022/09/21 11:32:56;;;;;;;6.13;2.15;;;14.30;99.90;;;;;;4990875;28;20530;-86
2022/09/21 11:35:47;;;;;;;4.90;1.98;;;14.30;99.90;;;;;;4977957;28;20407;-87
2022/09/21 11:38:25;;;;;;;8.15;2.30;;;14.40;99.90;;;;;;4986068;28;20057;-87
2022/09/21 11:41:26;;;;;;;3.75;2.10;;;14.50;99.90;;;;;;5016260;28;20065;-91
2022/09/21 11:44:23;;;;;;;6.85;1.80;;;14.60;99.90;;;;;;5017692;28;20081;-93
2022/09/21 11:47:05;;;;;;;4.10;2.00;;;14.70;99.90;;;;;;5009737;28;20074;-90
2022/09/21 11:50:02;;;;;;;3.42;1.88;;;14.80;99.90;;;;;;5011757;28;20101;-89
2022/09/21 11:53:26;;;;;;;5.82;1.90;;;14.80;99.90;;;;;;5026166;28;20066;-87
2022/09/21 11:56:19;;;;;;;4.68;1.92;;;14.90;99.90;;;;;;4987203;28;20047;-89
2022/09/21 11:59:05;;;;;;;5.10;2.13;;;15.10;99.90;;;;;;4965127;28;20054;-87
2022/09/21 12:01:41;;;;;;;3.85;1.50;;;15.10;99.90;;;;;;4982475;28;20076;-86
2022/09/21 12:04:35;;;;;;;2.17;1.55;;;15.10;99.90;;;;;;4993221;28;20061;-86
2022/09/21 12:07:39;;;;;;;2.75;1.70;;;15.10;99.90;;;;;;4977137;28;20050;-90
2022/09/21 12:10:21;;;;;;;4.07;1.90;;;15.20;99.90;;;;;;4969206;28;20046;-86
2022/09/21 12:13:10;;;;;;;3.58;1.58;;;15.30;99.90;;;;;;4962044;28;20150;-84
2022/09/21 12:15:45;;;;;;;2.17;1.45;;;15.30;99.90;;;;;;4971133;28;20038;-88
2022/09/21 12:18:27;;;;;;;4.60;1.70;;;15.30;99.90;;;;;;4987718;28;20054;-87
2022/09/21 12:21:05;;;;;;;4.22;1.40;;;15.30;99.90;;;;;;4989202;28;20057;-87
2022/09/21 12:23:38;;;;;;;4.45;1.70;;;15.20;99.90;;;;;;4975765;28;20085;-87
2022/09/21 12:26:06;;;;;;;2.75;1.50;;;15.30;99.90;;;;;;4973667;28;20444;-87
2022/09/21 12:28:49;;;;;;;2.25;1.30;;;15.40;99.90;;;;;;5000537;28;20110;-87
2022/09/21 12:31:30;;;;;;;3.05;1.30;;;15.50;99.90;;;;;;4979827;28;20085;-88
2022/09/21 12:34:04;;;;;;;6.88;1.70;;;15.50;99.90;;;;;;4988479;28;20082;-87
2022/09/21 12:36:40;;;;;;;1.65;1.33;;;15.50;99.90;;;;;;4994927;28;20042;-87
2022/09/21 12:39:20;;;;;;;1.77;1.02;;;15.50;99.90;;;;;;4999165;28;20125;-84
2022/09/21 12:41:54;;;;;;;4.35;1.10;;;15.50;99.90;;;;;;4972008;28;20042;-87
2022/09/21 12:44:34;;;;;;;2.90;1.27;;;15.50;99.90;;;;;;4994991;28;20046;-87
2022/09/21 12:47:10;;;;;;;1.65;1.35;;;15.60;99.90;;;;;;4993625;28;20080;-86
2022/09/21 12:49:44;;;;;;;4.32;1.40;;;15.50;99.90;;;;;;4995238;28;20535;-87
2022/09/21 12:52:21;;;;;;;3.75;1.23;;;15.50;99.90;;;;;;4990229;28;20065;-87
2022/09/21 12:55:09;;;;;;;3.60;1.10;;;15.60;99.90;;;;;;4983840;28;20050;-87
2022/09/21 12:58:03;;;;;;;3.97;0.98;;;15.70;99.90;;;;;;4979129;28;20046;-87
2022/09/21 13:01:21;;;;;;;2.13;1.15;;;16.00;99.90;;;;;;4994425;28;20431;-87
2022/09/21 13:03:58;;;;;;;4.40;1.13;;;16.10;99.90;;;;;;4991917;28;20215;-87
2022/09/21 13:06:38;;;;;;;2.75;0.95;;;16.10;99.90;;;;;;4999569;28;20054;-87
2022/09/21 13:09:14;;;;;;;1.85;1.00;;;16.10;99.90;;;;;;4986263;28;20054;-85
2022/09/21 13:11:54;;;;;;;2.97;1.08;;;16.30;99.90;;;;;;4998401;28;20068;-87
2022/09/21 13:14:24;;;;;;;3.33;1.27;;;16.20;99.90;;;;;;4979717;28;20051;-88
2022/09/21 13:17:00;;;;;;;3.47;0.90;;;16.20;99.90;;;;;;4980767;28;20104;-87
2022/09/21 13:19:31;;;;;;;2.30;1.25;;;16.40;99.90;;;;;;4963737;28;20420;-86
2022/09/21 13:22:18;;;;;;;2.60;1.00;;;16.50;99.90;;;;;;4998011;28;20062;-87
2022/09/21 13:25:00;;;;;;;3.97;1.08;;;16.50;99.90;;;;;;5001078;28;20030;-87
2022/09/21 13:27:58;;;;;;;1.30;0.70;;;16.60;99.90;;;;;;5016459;28;20053;-87
2022/09/21 13:31:02;;;;;;;1.70;0.70;;;16.90;99.90;;;;;;4976970;28;20062;-88
2022/09/21 13:34:00;;;;;;;1.52;0.70;;;16.90;99.90;;;;;;5009557;28;20077;-87
2022/09/21 13:36:34;;;;;;;2.90;0.80;;;17.00;99.90;;;;;;4987378;28;20487;-88
2022/09/21 13:39:17;;;;;;;3.47;1.15;;;17.10;99.90;;;;;;4993103;28;20052;-87